METAR Data
IDs: Format: Raw Decoded Include TAF

Data at: 0305 UTC 20 Jan 2022

PADQ 200231Z 29010G21KT 10SM SCT023 02/M02 A2943 RMK AO2 T00171022 $